Time;durP1;ratioP1;P1;durP2;ratioP2;P2;SDS_P1;SDS_P2;PMS_P1;PMS_P2;Temp;Humidity;BMP_temperature;BMP_pressure;BME280_temperature;BME280_humidity;BME280_pressure;Samples;Min_cycle;Max_cycle;Signal;HPM_P1;HPM_P2
2021/10/13 00:05:01;;;;;;;9.60;1.75;;;;;;;;;;4298851;33;20156;-75
2021/10/13 00:07:38;;;;;;;9.25;1.60;;;;;;;;;;4296559;33;20156;-74
2021/10/13 00:13:52;;;;;;;;;;;;;;;;;;;;;
2021/10/13 00:16:35;;;;;;;9.77;1.60;;;;;;;;;;4278844;33;20172;-74
2021/10/13 00:19:10;;;;;;;10.38;1.95;;;;;;;;;;4302031;33;20140;-74
2021/10/13 00:21:35;;;;;;;6.10;1.52;;;;;;;;;;4301933;33;20160;-75
2021/10/13 00:24:06;;;;;;;6.07;1.67;;;;;;;;;;4301745;33;20433;-74
2021/10/13 00:27:10;;;;;;;8.20;1.58;;;;;;;;;;4288407;33;20194;-74
2021/10/13 00:32:33;;;;;;;4.18;1.35;;;;;;;;;;4298241;33;20225;-74
2021/10/13 00:34:58;;;;;;;4.57;1.33;;;;;;;;;;4285007;33;20172;-75
2021/10/13 00:37:31;;;;;;;3.92;1.70;;;;;;;;;;4297460;33;20176;-74
2021/10/13 00:40:07;;;;;;;5.72;1.35;;;;;;;;;;4301822;33;20531;-74
2021/10/13 00:42:50;;;;;;;5.68;1.23;;;;;;;;;;4288254;33;20160;-74
2021/10/13 00:45:16;;;;;;;3.95;1.05;;;;;;;;;;4287909;33;20226;-74
2021/10/13 00:47:41;;;;;;;3.95;0.82;;;;;;;;;;4301385;33;20579;-75
2021/10/13 00:50:12;;;;;;;1.85;0.70;;;;;;;;;;4301799;33;20463;-74
2021/10/13 00:53:08;;;;;;;2.25;0.88;;;;;;;;;;4287522;33;20161;-74
2021/10/13 00:56:18;;;;;;;4.35;0.70;;;;;;;;;;4286801;33;20160;-74
2021/10/13 00:58:29;;;;;;;4.10;0.93;;;;;;;;;;4293538;33;20191;-74
2021/10/13 01:01:02;;;;;;;5.10;0.85;;;;;;;;;;4290150;33;20171;-74
2021/10/13 01:03:57;;;;;;;3.30;0.98;;;;;;;;;;4290803;33;20165;-74
2021/10/13 01:13:25;;;;;;;;;;;;;;;;;;;;;
2021/10/13 01:16:08;;;;;;;3.12;0.88;;;;;;;;;;4298403;33;20218;-74
2021/10/13 01:18:41;;;;;;;5.30;0.98;;;;;;;;;;4290289;33;20448;-74
2021/10/13 01:27:44;;;;;;;4.80;0.90;;;;;;;;;;4272817;33;20601;-75
2021/10/13 01:30:38;;;;;;;;;;;;;;;;;;;;;
2021/10/13 01:33:08;;;;;;;5.62;1.00;;;;;;;;;;4266941;33;20676;-74
2021/10/13 01:35:56;;;;;;;4.87;1.08;;;;;;;;;;4272475;33;20185;-75
2021/10/13 01:45:06;;;;;;;3.83;1.17;;;;;;;;;;4273294;33;20654;-74
2021/10/13 01:47:35;;;;;;;;;;;;;;;;;;;;;
2021/10/13 01:50:13;;;;;;;7.40;1.10;;;;;;;;;;4271477;33;20168;-74
2021/10/13 01:52:58;;;;;;;6.18;1.23;;;;;;;;;;4272510;33;20157;-74
2021/10/13 01:55:50;;;;;;;8.68;1.30;;;;;;;;;;4288774;33;20222;-75
2021/10/13 01:58:52;;;;;;;;;;;;;;;;;;;;;
2021/10/13 02:01:41;;;;;;;7.32;1.35;;;;;;;;;;4302699;33;20160;-74
2021/10/13 02:04:10;;;;;;;4.80;1.30;;;;;;;;;;4284635;33;20191;-74
2021/10/13 02:10:05;;;;;;;8.65;1.52;;;;;;;;;;4288330;33;20163;-74
2021/10/13 02:22:06;;;;;;;5.87;1.70;;;;;;;;;;4187911;34;20226;-74
2021/10/13 02:24:36;;;;;;;5.15;1.33;;;;;;;;;;4151701;34;20196;-74
2021/10/13 02:27:26;;;;;;;5.62;1.35;;;;;;;;;;4176831;34;20669;-74
2021/10/13 02:36:38;;;;;;;5.97;1.55;;;;;;;;;;4243409;33;20154;-74
2021/10/13 02:42:36;;;;;;;5.32;1.70;;;;;;;;;;4160603;34;20198;-74
2021/10/13 02:51:23;;;;;;;6.75;1.90;;;;;;;;;;4187553;34;20248;-74
2021/10/13 02:53:56;;;;;;;12.13;2.47;;;;;;;;;;4221473;34;20181;-75
2021/10/13 02:56:25;;;;;;;7.78;2.20;;;;;;;;;;4260155;33;20163;-74
2021/10/13 02:59:07;;;;;;;8.00;2.08;;;;;;;;;;4302881;33;20156;-75
2021/10/13 03:01:39;;;;;;;7.68;2.10;;;;;;;;;;4289150;33;20609;-75
2021/10/13 03:04:07;;;;;;;11.20;2.65;;;;;;;;;;4288731;33;20242;-75
2021/10/13 03:06:39;;;;;;;7.32;2.50;;;;;;;;;;4288707;33;20167;-75
2021/10/13 03:09:06;;;;;;;10.90;2.72;;;;;;;;;;4302185;33;20155;-75
2021/10/13 03:11:32;;;;;;;6.90;2.37;;;;;;;;;;4302048;33;20175;-75
2021/10/13 03:14:02;;;;;;;7.47;2.60;;;;;;;;;;4289181;33;20168;-75
2021/10/13 03:16:31;;;;;;;8.02;2.90;;;;;;;;;;4302161;33;20224;-75
2021/10/13 03:19:07;;;;;;;6.55;2.60;;;;;;;;;;4301967;33;20145;-74
2021/10/13 03:21:33;;;;;;;6.80;2.53;;;;;;;;;;4302086;33;20128;-74
2021/10/13 03:23:58;;;;;;;9.93;2.83;;;;;;;;;;4301919;33;20461;-75
2021/10/13 03:26:26;;;;;;;8.50;2.70;;;;;;;;;;4288738;33;20192;-74
2021/10/13 03:29:06;;;;;;;10.82;3.72;;;;;;;;;;4301633;33;20160;-75
2021/10/13 03:31:34;;;;;;;5.62;2.53;;;;;;;;;;4302066;33;20191;-74
2021/10/13 03:33:59;;;;;;;7.07;2.20;;;;;;;;;;4301767;33;20152;-75
2021/10/13 03:36:25;;;;;;;9.35;2.00;;;;;;;;;;4301396;33;20584;-74
2021/10/13 03:38:52;;;;;;;4.78;1.80;;;;;;;;;;4301917;33;20531;-74
2021/10/13 03:41:27;;;;;;;11.23;2.10;;;;;;;;;;4301874;33;20148;-75
2021/10/13 03:43:52;;;;;;;12.20;2.15;;;;;;;;;;4301996;33;20127;-75
2021/10/13 03:46:19;;;;;;;9.63;2.53;;;;;;;;;;4301988;33;20605;-74
2021/10/13 03:48:48;;;;;;;5.70;2.20;;;;;;;;;;4301566;33;20198;-75
2021/10/13 03:51:13;;;;;;;9.50;2.03;;;;;;;;;;4301434;33;20560;-75
2021/10/13 03:53:38;;;;;;;4.72;1.87;;;;;;;;;;4302017;33;20151;-75
2021/10/13 03:56:04;;;;;;;5.87;2.00;;;;;;;;;;4301677;33;20570;-74
2021/10/13 03:58:43;;;;;;;5.50;1.62;;;;;;;;;;4302313;33;20145;-74
2021/10/13 04:01:08;;;;;;;7.43;1.95;;;;;;;;;;4288622;33;20295;-75
2021/10/13 04:03:33;;;;;;;5.70;2.20;;;;;;;;;;4301837;33;20645;-74
2021/10/13 04:05:59;;;;;;;6.70;1.50;;;;;;;;;;4301396;33;20132;-75
2021/10/13 04:08:46;;;;;;;;;;;;;;;;;;;;;
2021/10/13 04:11:11;;;;;;;2.95;1.33;;;;;;;;;;4301362;33;20183;-76
2021/10/13 04:13:58;;;;;;;7.70;1.30;;;;;;;;;;4288504;33;20599;-75
2021/10/13 04:16:27;;;;;;;3.78;1.40;;;;;;;;;;4301997;33;20191;-74
2021/10/13 04:19:20;;;;;;;6.55;1.45;;;;;;;;;;4301212;33;20176;-75
2021/10/13 04:22:05;;;;;;;5.97;1.65;;;;;;;;;;4296049;33;20191;-75
2021/10/13 04:28:07;;;;;;;6.25;1.50;;;;;;;;;;4270854;33;20163;-76
2021/10/13 04:30:33;;;;;;;7.20;1.80;;;;;;;;;;4253597;33;20177;-75
2021/10/13 04:32:58;;;;;;;7.90;1.92;;;;;;;;;;4294189;33;20144;-75
2021/10/13 04:35:33;;;;;;;7.37;1.85;;;;;;;;;;4302844;33;20549;-75
2021/10/13 04:37:58;;;;;;;8.27;2.22;;;;;;;;;;4304633;33;20139;-75
2021/10/13 04:40:25;;;;;;;9.50;3.00;;;;;;;;;;4290817;33;20561;-75
2021/10/13 04:42:51;;;;;;;10.38;2.55;;;;;;;;;;4304200;33;20157;-75
2021/10/13 04:45:16;;;;;;;12.65;3.08;;;;;;;;;;4304200;33;20124;-74
2021/10/13 04:47:41;;;;;;;10.23;2.80;;;;;;;;;;4304244;33;20151;-74
2021/10/13 04:50:10;;;;;;;16.05;2.65;;;;;;;;;;4290782;33;20160;-74
2021/10/13 04:52:35;;;;;;;11.63;2.90;;;;;;;;;;4303759;33;20133;-74
2021/10/13 04:55:01;;;;;;;8.52;3.37;;;;;;;;;;4303774;33;20183;-75
2021/10/13 04:57:26;;;;;;;5.93;2.35;;;;;;;;;;4303721;33;20136;-74
2021/10/13 04:59:55;;;;;;;9.23;2.80;;;;;;;;;;4303670;33;20220;-74
2021/10/13 05:02:29;;;;;;;9.07;2.67;;;;;;;;;;4303800;33;20125;-75
2021/10/13 05:04:58;;;;;;;8.85;3.10;;;;;;;;;;4303592;33;20226;-74
2021/10/13 05:07:32;;;;;;;10.55;3.47;;;;;;;;;;4289663;33;20202;-74
2021/10/13 05:09:57;;;;;;;11.30;3.85;;;;;;;;;;4303836;33;20263;-74
2021/10/13 05:12:25;;;;;;;11.00;3.05;;;;;;;;;;4303772;33;20551;-74
2021/10/13 05:15:07;;;;;;;9.43;3.03;;;;;;;;;;4290592;33;20210;-74
2021/10/13 05:17:42;;;;;;;;;;;;;;;;;;;;;
2021/10/13 05:20:23;;;;;;;10.75;2.80;;;;;;;;;;4299263;33;20172;-76
2021/10/13 05:23:34;;;;;;;10.90;2.92;;;;;;;;;;4290172;33;20183;-75
2021/10/13 05:25:37;;;;;;;11.95;3.65;;;;;;;;;;4300491;33;20215;-74
2021/10/13 05:28:06;;;;;;;7.28;2.42;;;;;;;;;;4303493;33;20144;-74
2021/10/13 05:34:38;;;;;;;7.62;2.35;;;;;;;;;;4303682;33;20641;-74
2021/10/13 05:36:51;;;;;;;9.48;3.12;;;;;;;;;;4284340;33;20585;-74
2021/10/13 05:39:38;;;;;;;10.98;4.03;;;;;;;;;;4303203;33;20137;-76
2021/10/13 05:42:36;;;;;;;11.40;3.53;;;;;;;;;;4315809;33;20152;-74
2021/10/13 05:45:02;;;;;;;9.13;3.35;;;;;;;;;;4287219;33;20168;-74
2021/10/13 05:47:52;;;;;;;8.00;3.20;;;;;;;;;;4289369;33;20260;-74
2021/10/13 05:50:17;;;;;;;7.70;2.72;;;;;;;;;;4303601;33;20178;-74
2021/10/13 05:52:42;;;;;;;8.85;2.47;;;;;;;;;;4299049;33;20149;-74
2021/10/13 05:55:23;;;;;;;;;;;;;;;;;;;;;
2021/10/13 05:58:03;;;;;;;11.00;2.40;;;;;;;;;;4305766;33;20188;-74
2021/10/13 06:00:29;;;;;;;8.50;2.45;;;;;;;;;;4289098;33;20243;-74
2021/10/13 06:06:11;;;;;;;14.68;3.20;;;;;;;;;;4285652;33;20169;-74
2021/10/13 06:08:36;;;;;;;8.10;2.70;;;;;;;;;;4299436;33;20156;-71
2021/10/13 06:11:02;;;;;;;9.65;3.08;;;;;;;;;;4289549;33;20191;-75
2021/10/13 06:13:30;;;;;;;6.35;2.40;;;;;;;;;;4288987;33;20191;-74
2021/10/13 06:16:17;;;;;;;8.25;2.15;;;;;;;;;;4288735;33;20621;-75
2021/10/13 06:18:43;;;;;;;13.02;2.90;;;;;;;;;;4302017;33;20176;-74
2021/10/13 06:21:11;;;;;;;10.60;3.42;;;;;;;;;;4302654;33;20606;-74
2021/10/13 06:23:36;;;;;;;10.88;2.70;;;;;;;;;;4288141;33;20184;-74
2021/10/13 06:26:02;;;;;;;8.25;3.10;;;;;;;;;;4286528;33;20199;-74
2021/10/13 06:28:31;;;;;;;9.40;2.37;;;;;;;;;;4299857;33;20183;-74
2021/10/13 06:30:59;;;;;;;6.80;2.20;;;;;;;;;;4304662;33;20204;-76
2021/10/13 06:33:36;;;;;;;8.85;2.92;;;;;;;;;;4302151;33;20247;-74
2021/10/13 06:36:07;;;;;;;7.93;2.50;;;;;;;;;;4295813;33;20519;-74
2021/10/13 06:38:39;;;;;;;10.93;3.30;;;;;;;;;;4310527;33;20152;-75
2021/10/13 06:41:14;;;;;;;11.05;3.20;;;;;;;;;;4289258;33;20551;-74
2021/10/13 06:43:39;;;;;;;9.23;3.15;;;;;;;;;;4302818;33;20262;-74
2021/10/13 06:46:16;;;;;;;8.77;2.80;;;;;;;;;;4302782;33;20136;-75
2021/10/13 06:48:42;;;;;;;10.57;3.55;;;;;;;;;;4302747;33;20195;-74
2021/10/13 06:51:10;;;;;;;7.35;2.65;;;;;;;;;;4302320;33;20148;-74
2021/10/13 06:53:36;;;;;;;10.70;3.20;;;;;;;;;;4302091;33;20168;-75
2021/10/13 06:56:01;;;;;;;8.07;2.95;;;;;;;;;;4285060;33;20169;-74
2021/10/13 06:58:30;;;;;;;9.23;3.00;;;;;;;;;;4295070;33;20152;-75
2021/10/13 07:01:04;;;;;;;11.63;3.45;;;;;;;;;;4300687;33;20215;-74
2021/10/13 07:06:15;;;;;;;7.40;2.55;;;;;;;;;;4302005;33;20600;-74
2021/10/13 07:08:40;;;;;;;8.63;3.08;;;;;;;;;;4288760;33;20168;-74
2021/10/13 07:11:09;;;;;;;7.87;3.03;;;;;;;;;;4301911;33;20196;-75
2021/10/13 07:13:34;;;;;;;10.05;3.40;;;;;;;;;;4288699;33;20219;-73
2021/10/13 07:15:59;;;;;;;8.38;3.37;;;;;;;;;;4301681;33;20144;-74
2021/10/13 07:18:28;;;;;;;8.73;4.43;;;;;;;;;;4302174;33;20192;-74
2021/10/13 07:20:53;;;;;;;9.52;3.22;;;;;;;;;;4301914;33;20171;-74
2021/10/13 07:23:19;;;;;;;7.65;3.15;;;;;;;;;;4301912;33;20145;-74
2021/10/13 07:25:44;;;;;;;10.85;3.62;;;;;;;;;;4288255;33;20200;-74
2021/10/13 07:28:11;;;;;;;8.73;3.00;;;;;;;;;;4301833;33;20156;-74
2021/10/13 07:30:37;;;;;;;10.40;3.05;;;;;;;;;;4301560;33;20144;-73
2021/10/13 07:33:05;;;;;;;8.07;3.50;;;;;;;;;;4301678;33;20610;-73
2021/10/13 07:35:32;;;;;;;5.78;2.60;;;;;;;;;;4301662;33;20152;-73
2021/10/13 07:38:03;;;;;;;10.65;3.03;;;;;;;;;;4301412;33;20175;-72
2021/10/13 07:40:30;;;;;;;6.50;2.58;;;;;;;;;;4301662;33;20218;-75
2021/10/13 07:43:31;;;;;;;7.53;2.85;;;;;;;;;;4301423;33;20156;-74
2021/10/13 07:46:25;;;;;;;;;;;;;;;;;;;;;
2021/10/13 07:48:40;;;;;;;6.72;2.95;;;;;;;;;;4297013;33;20180;-74
2021/10/13 07:51:05;;;;;;;8.73;2.90;;;;;;;;;;4301397;33;20167;-75
2021/10/13 07:53:31;;;;;;;7.60;2.28;;;;;;;;;;4288395;33;20160;-74
2021/10/13 07:56:06;;;;;;;11.05;2.80;;;;;;;;;;4300344;33;20231;-74
2021/10/13 08:01:30;;;;;;;6.55;3.05;;;;;;;;;;4281318;33;20195;-73
2021/10/13 08:03:55;;;;;;;8.77;3.05;;;;;;;;;;4286870;33;20141;-74
2021/10/13 08:06:21;;;;;;;9.73;3.10;;;;;;;;;;4298193;33;20145;-74
2021/10/13 08:15:13;;;;;;;13.38;6.68;;;;;;;;;;4304146;33;20641;-74
2021/10/13 08:17:50;;;;;;;10.35;3.33;;;;;;;;;;4272515;33;20211;-74
2021/10/13 08:20:15;;;;;;;7.97;3.25;;;;;;;;;;4277256;33;20157;-74
2021/10/13 08:23:03;;;;;;;12.63;3.55;;;;;;;;;;4276354;33;20223;-73
2021/10/13 08:25:32;;;;;;;9.57;2.42;;;;;;;;;;4289456;33;20141;-74
2021/10/13 08:28:10;;;;;;;4.95;2.15;;;;;;;;;;4274656;33;20273;-75
2021/10/13 08:31:02;;;;;;;5.80;1.58;;;;;;;;;;4286059;33;20277;-74
2021/10/13 08:33:43;;;;;;;2.22;1.50;;;;;;;;;;4285733;33;20176;-75
2021/10/13 08:36:16;;;;;;;8.82;2.12;;;;;;;;;;4288216;33;20156;-73
2021/10/13 08:41:32;;;;;;;4.05;1.45;;;;;;;;;;4289599;33;20159;-75
2021/10/13 08:44:13;;;;;;;1.60;0.85;;;;;;;;;;4287854;33;20168;-75
2021/10/13 08:46:58;;;;;;;5.85;1.05;;;;;;;;;;4261643;33;20221;-74
2021/10/13 08:49:55;;;;;;;;;;;;;;;;;;;;;
2021/10/13 08:52:31;;;;;;;5.65;1.02;;;;;;;;;;4292073;33;20156;-74
2021/10/13 08:54:56;;;;;;;2.65;0.80;;;;;;;;;;4275647;33;20160;-74
2021/10/13 08:57:30;;;;;;;4.28;1.05;;;;;;;;;;4288703;33;20149;-74
2021/10/13 08:59:59;;;;;;;5.95;1.10;;;;;;;;;;4277635;33;20168;-74
2021/10/13 09:03:06;;;;;;;3.87;0.95;;;;;;;;;;4279351;33;20248;-74
2021/10/13 09:08:18;;;;;;;3.55;0.70;;;;;;;;;;4288854;33;20236;-73
2021/10/13 09:10:53;;;;;;;8.23;1.42;;;;;;;;;;4275507;33;20169;-74
2021/10/13 09:13:35;;;;;;;8.23;1.37;;;;;;;;;;4289873;33;20172;-73
2021/10/13 09:16:01;;;;;;;8.80;1.08;;;;;;;;;;4283544;33;20137;-74
2021/10/13 09:22:24;;;;;;;5.75;0.85;;;;;;;;;;4265344;33;20176;-74
2021/10/13 09:24:36;;;;;;;3.25;1.02;;;;;;;;;;4283107;33;20243;-74
2021/10/13 09:30:31;;;;;;;5.35;1.02;;;;;;;;;;4280183;33;20213;-74
2021/10/13 09:33:07;;;;;;;3.37;0.90;;;;;;;;;;4260020;33;20227;-74
2021/10/13 09:36:04;;;;;;;5.53;1.02;;;;;;;;;;4288461;33;20225;-74
2021/10/13 09:38:44;;;;;;;4.57;1.20;;;;;;;;;;4290228;33;20226;-74
2021/10/13 09:41:10;;;;;;;4.78;0.80;;;;;;;;;;4287587;33;20153;-75
2021/10/13 09:43:36;;;;;;;8.00;1.20;;;;;;;;;;4298391;33;20640;-74
2021/10/13 09:46:06;;;;;;;7.55;1.20;;;;;;;;;;4301378;33;20204;-75
2021/10/13 09:48:48;;;;;;;4.90;1.20;;;;;;;;;;4302971;33;20492;-75
2021/10/13 09:51:39;;;;;;;4.53;0.90;;;;;;;;;;4292572;33;20216;-73
2021/10/13 09:54:07;;;;;;;4.60;1.08;;;;;;;;;;4282961;33;20219;-74
2021/10/13 09:56:42;;;;;;;6.53;1.20;;;;;;;;;;4286746;33;20152;-72
2021/10/13 09:59:15;;;;;;;5.72;1.15;;;;;;;;;;4286320;33;20167;-75
2021/10/13 10:02:43;;;;;;;3.78;0.98;;;;;;;;;;4286810;33;20224;-74
2021/10/13 10:04:45;;;;;;;27.85;3.65;;;;;;;;;;4285776;33;20313;-76
2021/10/13 10:07:12;;;;;;;14.48;2.10;;;;;;;;;;4287809;33;20179;-74
2021/10/13 10:09:47;;;;;;;22.58;2.05;;;;;;;;;;4288223;33;20140;-73
2021/10/13 10:12:49;;;;;;;7.07;1.55;;;;;;;;;;4282926;33;20242;-74
2021/10/13 10:15:40;;;;;;;21.55;5.68;;;;;;;;;;4285288;33;20191;-75
2021/10/13 10:18:44;;;;;;;;;;;;;;;;;;;;;
2021/10/13 10:21:45;;;;;;;9.30;1.50;;;;;;;;;;4288553;33;20171;-74
2021/10/13 10:24:29;;;;;;;9.23;1.50;;;;;;;;;;4263701;33;20204;-74
2021/10/13 10:27:13;;;;;;;24.23;3.15;;;;;;;;;;4274410;33;20835;-73
2021/10/13 10:29:41;;;;;;;7.82;1.37;;;;;;;;;;4273863;33;20183;-74
2021/10/13 10:32:14;;;;;;;5.20;0.80;;;;;;;;;;4273743;33;20212;-74
2021/10/13 10:35:08;;;;;;;9.40;1.87;;;;;;;;;;4274801;33;20235;-75
2021/10/13 10:37:48;;;;;;;;;;;;;;;;;;;;;
2021/10/13 10:40:36;;;;;;;5.68;1.17;;;;;;;;;;4285920;33;20190;-74
2021/10/13 10:43:25;;;;;;;11.27;1.45;;;;;;;;;;4274496;33;20160;-75
2021/10/13 10:48:47;;;;;;;6.78;1.52;;;;;;;;;;4287745;33;20164;-74
2021/10/13 10:51:47;;;;;;;;;;;;;;;;;;;;;
2021/10/13 10:54:24;;;;;;;5.25;1.70;;;;;;;;;;4283892;33;20172;-75
2021/10/13 11:00:00;;;;;;;4.12;0.88;;;;;;;;;;4243440;33;20194;-74
2021/10/13 11:05:25;;;;;;;5.90;1.20;;;;;;;;;;4242085;33;20183;-72
2021/10/13 11:07:50;;;;;;;8.23;1.40;;;;;;;;;;4230410;33;20200;-74
2021/10/13 11:10:47;;;;;;;13.95;4.47;;;;;;;;;;4237867;33;20165;-74
2021/10/13 11:13:22;;;;;;;8.88;2.00;;;;;;;;;;4263443;33;20185;-73
2021/10/13 11:15:47;;;;;;;6.55;3.03;;;;;;;;;;4277715;33;20147;-74
2021/10/13 11:21:12;;;;;;;5.35;1.15;;;;;;;;;;4301120;33;20171;-69
2021/10/13 11:23:37;;;;;;;5.00;1.27;;;;;;;;;;4299841;33;20148;-73
2021/10/13 11:26:03;;;;;;;4.47;1.10;;;;;;;;;;4287742;33;20184;-74
2021/10/13 11:28:45;;;;;;;7.65;3.00;;;;;;;;;;4288337;33;20232;-75
2021/10/13 11:31:40;;;;;;;;;;;;;;;;;;;;;
2021/10/13 11:34:09;;;;;;;4.35;1.30;;;;;;;;;;4300062;33;20179;-75
2021/10/13 11:37:00;;;;;;;;;;;;;;;;;;;;;
2021/10/13 11:39:30;;;;;;;3.15;0.98;;;;;;;;;;4285008;33;20160;-74
2021/10/13 11:41:57;;;;;;;4.93;1.17;;;;;;;;;;4286785;33;20293;-75
2021/10/13 11:44:23;;;;;;;5.43;1.37;;;;;;;;;;4286452;33;20137;-72
2021/10/13 11:46:54;;;;;;;5.07;1.08;;;;;;;;;;4285655;33;20165;-74
2021/10/13 11:49:20;;;;;;;7.80;1.50;;;;;;;;;;4286920;33;20593;-74
2021/10/13 11:52:05;;;;;;;3.33;0.80;;;;;;;;;;4285851;33;20164;-74
2021/10/13 11:54:31;;;;;;;4.60;1.10;;;;;;;;;;4286448;33;20550;-74
2021/10/13 11:56:57;;;;;;;4.10;1.00;;;;;;;;;;4296045;33;20156;-74
2021/10/13 11:59:22;;;;;;;5.25;1.50;;;;;;;;;;4293604;33;20545;-75
2021/10/13 12:01:48;;;;;;;6.37;1.27;;;;;;;;;;4287019;33;20169;-71
2021/10/13 12:04:13;;;;;;;10.90;2.20;;;;;;;;;;4287464;33;20210;-68
2021/10/13 12:06:42;;;;;;;4.50;1.12;;;;;;;;;;4301438;33;20136;-72
2021/10/13 12:09:07;;;;;;;2.75;0.80;;;;;;;;;;4301303;33;20156;-74
2021/10/13 12:11:36;;;;;;;3.97;0.90;;;;;;;;;;4287957;33;20579;-74
2021/10/13 12:14:10;;;;;;;6.28;1.05;;;;;;;;;;4287808;33;20203;-74
2021/10/13 12:16:35;;;;;;;7.45;3.67;;;;;;;;;;4301004;33;20521;-74
2021/10/13 12:19:10;;;;;;;6.78;1.05;;;;;;;;;;4287510;33;20190;-74
2021/10/13 12:21:35;;;;;;;4.55;1.30;;;;;;;;;;4287921;33;20258;-73
2021/10/13 12:24:05;;;;;;;5.68;0.93;;;;;;;;;;4300905;33;20509;-75
2021/10/13 12:26:43;;;;;;;4.22;1.10;;;;;;;;;;4301533;33;20152;-75
2021/10/13 12:29:13;;;;;;;3.20;1.02;;;;;;;;;;4287835;33;20449;-75
2021/10/13 12:31:40;;;;;;;3.60;0.90;;;;;;;;;;4287495;33;20686;-75
2021/10/13 12:34:22;;;;;;;2.62;0.95;;;;;;;;;;4287465;33;20602;-74
2021/10/13 12:37:07;;;;;;;4.95;1.15;;;;;;;;;;4287689;33;20559;-75
2021/10/13 12:39:44;;;;;;;2.83;0.77;;;;;;;;;;4288131;33;20251;-74
2021/10/13 12:42:10;;;;;;;4.90;0.73;;;;;;;;;;4302336;33;20520;-75
2021/10/13 12:45:05;;;;;;;4.72;0.82;;;;;;;;;;4287688;33;20599;-74
2021/10/13 12:47:33;;;;;;;12.80;8.27;;;;;;;;;;4294732;33;20167;-75
2021/10/13 12:50:10;;;;;;;4.22;2.47;;;;;;;;;;4300863;33;20133;-75
2021/10/13 12:52:35;;;;;;;3.05;1.00;;;;;;;;;;4301407;33;20630;-74
2021/10/13 12:55:00;;;;;;;5.90;1.05;;;;;;;;;;4285033;33;20177;-74
2021/10/13 12:57:37;;;;;;;2.80;0.70;;;;;;;;;;4288663;33;20199;-74
2021/10/13 13:00:04;;;;;;;6.43;0.90;;;;;;;;;;4289835;33;20183;-74
2021/10/13 13:03:32;;;;;;;2.00;0.73;;;;;;;;;;4288709;33;20152;-74
2021/10/13 13:06:11;;;;;;;2.75;1.15;;;;;;;;;;4282783;33;20190;-73
2021/10/13 13:08:45;;;;;;;3.33;1.05;;;;;;;;;;4297486;33;20471;-73
2021/10/13 13:11:11;;;;;;;3.35;1.30;;;;;;;;;;4303200;33;20546;-73
2021/10/13 13:13:36;;;;;;;5.10;3.30;;;;;;;;;;4293540;33;20207;-74
2021/10/13 13:16:01;;;;;;;7.62;3.58;;;;;;;;;;4303042;33;20227;-74
2021/10/13 13:18:30;;;;;;;1.95;0.98;;;;;;;;;;4303623;33;20162;-73
2021/10/13 13:20:55;;;;;;;4.70;1.10;;;;;;;;;;4301926;33;20211;-73
2021/10/13 13:23:21;;;;;;;3.40;0.93;;;;;;;;;;4301811;33;20665;-74
2021/10/13 13:25:46;;;;;;;7.28;2.10;;;;;;;;;;4301590;33;20216;-75
2021/10/13 13:28:12;;;;;;;22.45;20.30;;;;;;;;;;4302070;33;20609;-73
2021/10/13 13:30:43;;;;;;;9.38;8.02;;;;;;;;;;4303494;33;20191;-74
2021/10/13 13:33:47;;;;;;;11.95;10.70;;;;;;;;;;4302084;33;20519;-74
2021/10/13 13:36:37;;;;;;;6.00;2.17;;;;;;;;;;4287225;33;20220;-74
2021/10/13 13:39:07;;;;;;;4.57;1.80;;;;;;;;;;4289002;33;20164;-73
2021/10/13 13:41:55;;;;;;;;;;;;;;;;;;;;;
2021/10/13 13:47:09;;;;;;;5.68;1.75;;;;;;;;;;4302594;33;20625;-73
2021/10/13 13:49:35;;;;;;;4.43;2.83;;;;;;;;;;4293117;33;20208;-74
2021/10/13 13:52:07;;;;;;;3.40;1.20;;;;;;;;;;4301804;33;20168;-73
2021/10/13 13:57:56;;;;;;;;;;;;;;;;;;;;;
2021/10/13 14:00:25;;;;;;;4.40;1.02;;;;;;;;;;4302984;33;20147;-73
2021/10/13 14:02:50;;;;;;;1.98;0.90;;;;;;;;;;4299959;33;20152;-73
2021/10/13 14:05:16;;;;;;;4.85;1.45;;;;;;;;;;4307456;33;20593;-74
2021/10/13 14:07:41;;;;;;;4.45;0.90;;;;;;;;;;4306776;33;20133;-75
2021/10/13 14:13:06;;;;;;;3.20;0.95;;;;;;;;;;4292589;33;20149;-73
2021/10/13 14:15:59;;;;;;;3.42;1.17;;;;;;;;;;4289774;33;20563;-74
2021/10/13 14:18:24;;;;;;;3.37;1.00;;;;;;;;;;4289264;33;20182;-74
2021/10/13 14:20:53;;;;;;;2.95;0.95;;;;;;;;;;4288673;33;20180;-73
2021/10/13 14:23:18;;;;;;;2.20;1.00;;;;;;;;;;4287297;33;20179;-73
2021/10/13 14:25:43;;;;;;;12.88;1.60;;;;;;;;;;4287214;33;20145;-73
2021/10/13 14:28:09;;;;;;;4.22;1.20;;;;;;;;;;4297083;33;20180;-71
2021/10/13 14:30:35;;;;;;;5.25;1.23;;;;;;;;;;4286655;33;20208;-73
2021/10/13 14:33:00;;;;;;;3.83;0.95;;;;;;;;;;4286095;33;20682;-74
2021/10/13 14:35:26;;;;;;;4.03;1.10;;;;;;;;;;4286352;33;20169;-73
2021/10/13 14:37:51;;;;;;;4.68;1.00;;;;;;;;;;4288060;33;20157;-74
2021/10/13 14:40:19;;;;;;;4.37;1.10;;;;;;;;;;4287012;33;20662;-75
2021/10/13 14:42:44;;;;;;;2.70;0.93;;;;;;;;;;4287331;33;20182;-72
2021/10/13 14:45:17;;;;;;;4.93;1.50;;;;;;;;;;4294700;33;20674;-74
2021/10/13 14:47:48;;;;;;;2.87;1.12;;;;;;;;;;4286375;33;20142;-74
2021/10/13 14:50:17;;;;;;;2.28;0.80;;;;;;;;;;4298578;33;20391;-74
2021/10/13 14:52:42;;;;;;;4.20;1.25;;;;;;;;;;4290724;33;20246;-73
2021/10/13 14:55:08;;;;;;;3.28;1.20;;;;;;;;;;4283751;33;20162;-71
2021/10/13 14:57:36;;;;;;;6.03;1.30;;;;;;;;;;4290459;33;20164;-72
2021/10/13 15:00:01;;;;;;;3.92;1.30;;;;;;;;;;4292822;33;20558;-73
2021/10/13 15:02:26;;;;;;;4.93;1.52;;;;;;;;;;4292350;33;20169;-73
2021/10/13 15:04:52;;;;;;;4.10;1.35;;;;;;;;;;4272786;33;20153;-74
2021/10/13 15:07:17;;;;;;;6.50;1.23;;;;;;;;;;4278025;33;20251;-75
2021/10/13 15:09:42;;;;;;;4.80;1.10;;;;;;;;;;4285786;33;20235;-71
2021/10/13 15:12:07;;;;;;;5.35;1.80;;;;;;;;;;4286035;33;20180;-72
2021/10/13 15:14:38;;;;;;;5.60;1.60;;;;;;;;;;4287426;33;20355;-74
2021/10/13 15:17:07;;;;;;;8.32;1.80;;;;;;;;;;4294663;33;20176;-73
2021/10/13 15:19:33;;;;;;;20.10;2.65;;;;;;;;;;4299559;33;20140;-74
2021/10/13 15:21:58;;;;;;;11.20;2.20;;;;;;;;;;4296489;33;20226;-72
2021/10/13 15:24:23;;;;;;;12.05;2.35;;;;;;;;;;4296570;33;20164;-74
2021/10/13 15:26:49;;;;;;;35.05;3.55;;;;;;;;;;4285149;33;20239;-72
2021/10/13 15:29:24;;;;;;;9.35;1.90;;;;;;;;;;4301232;33;20132;-73
2021/10/13 15:31:56;;;;;;;4.47;1.50;;;;;;;;;;4300666;33;20194;-74
2021/10/13 15:34:28;;;;;;;4.70;1.55;;;;;;;;;;4300962;33;20567;-74
2021/10/13 15:36:56;;;;;;;6.37;1.67;;;;;;;;;;4301924;33;20608;-73
2021/10/13 15:39:22;;;;;;;5.82;1.45;;;;;;;;;;4287716;33;20486;-72
2021/10/13 15:41:48;;;;;;;2.75;1.30;;;;;;;;;;4288405;33;20179;-72
2021/10/13 15:44:15;;;;;;;11.25;2.00;;;;;;;;;;4289022;33;20654;-71
2021/10/13 15:46:49;;;;;;;8.43;1.70;;;;;;;;;;4300996;33;20172;-73
2021/10/13 15:49:15;;;;;;;3.95;1.20;;;;;;;;;;4301417;33;20259;-74
2021/10/13 15:51:40;;;;;;;12.13;1.50;;;;;;;;;;4300712;33;20191;-74
2021/10/13 15:54:08;;;;;;;3.75;1.35;;;;;;;;;;4290124;33;20168;-74
2021/10/13 15:56:36;;;;;;;11.38;2.10;;;;;;;;;;4302098;33;20180;-74
2021/10/13 15:59:03;;;;;;;8.70;1.65;;;;;;;;;;4285490;33;20172;-74
2021/10/13 16:01:28;;;;;;;8.10;1.58;;;;;;;;;;4273780;33;20227;-73
2021/10/13 16:04:00;;;;;;;3.33;1.35;;;;;;;;;;4273235;33;20169;-75
2021/10/13 16:06:28;;;;;;;7.45;1.50;;;;;;;;;;4285071;33;20701;-73
2021/10/13 16:08:54;;;;;;;7.53;1.73;;;;;;;;;;4273059;33;20583;-74
2021/10/13 16:11:37;;;;;;;10.18;2.00;;;;;;;;;;4292525;33;20168;-73
2021/10/13 16:14:22;;;;;;;6.37;2.22;;;;;;;;;;4300371;33;20156;-74
2021/10/13 16:19:36;;;;;;;5.22;1.60;;;;;;;;;;4294535;33;20219;-73
2021/10/13 16:22:03;;;;;;;12.45;2.20;;;;;;;;;;4274865;33;20192;-73
2021/10/13 16:24:31;;;;;;;4.68;1.50;;;;;;;;;;4286698;33;20153;-74
2021/10/13 16:27:13;;;;;;;10.15;1.70;;;;;;;;;;4272996;33;20611;-73
2021/10/13 16:29:41;;;;;;;5.37;1.45;;;;;;;;;;4272665;33;20160;-72
2021/10/13 16:32:19;;;;;;;5.87;1.70;;;;;;;;;;4289626;33;20140;-73
2021/10/13 16:34:45;;;;;;;6.85;2.05;;;;;;;;;;4275581;33;20228;-73
2021/10/13 16:37:18;;;;;;;9.80;2.05;;;;;;;;;;4289420;33;20175;-73
2021/10/13 16:39:54;;;;;;;7.05;2.00;;;;;;;;;;4275905;33;20159;-73
2021/10/13 16:42:20;;;;;;;8.23;2.58;;;;;;;;;;4275901;33;20221;-75
2021/10/13 16:44:53;;;;;;;7.00;2.03;;;;;;;;;;4275721;33;20515;-74
2021/10/13 16:47:18;;;;;;;5.47;2.10;;;;;;;;;;4275649;33;20195;-73
2021/10/13 16:49:43;;;;;;;5.55;1.62;;;;;;;;;;4289006;33;20156;-72
2021/10/13 16:52:33;;;;;;;6.65;1.52;;;;;;;;;;4289133;33;20137;-73
2021/10/13 16:55:02;;;;;;;4.45;1.60;;;;;;;;;;4286514;33;20200;-73
2021/10/13 16:57:30;;;;;;;3.25;1.30;;;;;;;;;;4273245;33;20173;-73
2021/10/13 17:00:09;;;;;;;9.55;3.75;;;;;;;;;;4274695;33;20173;-74
2021/10/13 17:02:35;;;;;;;6.87;2.28;;;;;;;;;;4275708;33;20192;-73
2021/10/13 17:05:00;;;;;;;5.25;1.55;;;;;;;;;;4275814;33;20195;-73
2021/10/13 17:07:29;;;;;;;5.20;1.33;;;;;;;;;;4291267;33;20156;-73
2021/10/13 17:09:54;;;;;;;6.57;1.90;;;;;;;;;;4283276;33;20276;-74
2021/10/13 17:12:19;;;;;;;4.47;1.95;;;;;;;;;;4261549;33;20180;-73
2021/10/13 17:14:45;;;;;;;11.18;2.05;;;;;;;;;;4268727;33;20208;-73
2021/10/13 17:17:10;;;;;;;6.20;1.42;;;;;;;;;;4288244;33;20165;-73
2021/10/13 17:19:38;;;;;;;5.87;1.70;;;;;;;;;;4288396;33;20179;-74
2021/10/13 17:22:06;;;;;;;4.80;2.05;;;;;;;;;;4286801;33;20156;-74
2021/10/13 17:24:34;;;;;;;5.97;2.03;;;;;;;;;;4274849;33;20192;-74
2021/10/13 17:27:00;;;;;;;6.45;2.20;;;;;;;;;;4275010;33;20156;-74